sensor_id;sensor_type;location;lat;lon;timestamp;P1;durP1;ratioP1;P2;durP2;ratioP2
55465;SDS011;41329;41.594;23.810;2022-10-17T00:00:20;5.67;;;5.17;;
55465;SDS011;41329;41.594;23.810;2022-10-17T00:02:45;5.13;;;4.73;;
55465;SDS011;41329;41.594;23.810;2022-10-17T00:05:11;5.57;;;5.17;;
55465;SDS011;41329;41.594;23.810;2022-10-17T00:07:37;5.83;;;5.43;;
55465;SDS011;41329;41.594;23.810;2022-10-17T00:10:03;9.00;;;5.80;;
55465;SDS011;41329;41.594;23.810;2022-10-17T00:12:30;6.17;;;5.67;;
55465;SDS011;41329;41.594;23.810;2022-10-17T00:14:55;7.27;;;6.73;;
55465;SDS011;41329;41.594;23.810;2022-10-17T00:17:21;8.13;;;7.33;;
55465;SDS011;41329;41.594;23.810;2022-10-17T00:19:46;6.30;;;5.80;;
55465;SDS011;41329;41.594;23.810;2022-10-17T00:22:12;8.73;;;6.63;;
55465;SDS011;41329;41.594;23.810;2022-10-17T00:24:37;7.67;;;7.07;;
55465;SDS011;41329;41.594;23.810;2022-10-17T00:27:03;6.50;;;6.00;;
55465;SDS011;41329;41.594;23.810;2022-10-17T00:29:29;6.50;;;4.87;;
55465;SDS011;41329;41.594;23.810;2022-10-17T00:31:55;5.30;;;4.97;;
55465;SDS011;41329;41.594;23.810;2022-10-17T00:34:21;5.83;;;5.33;;
55465;SDS011;41329;41.594;23.810;2022-10-17T00:36:48;5.67;;;5.17;;
55465;SDS011;41329;41.594;23.810;2022-10-17T00:39:13;5.03;;;4.63;;
55465;SDS011;41329;41.594;23.810;2022-10-17T00:41:39;4.80;;;4.27;;
55465;SDS011;41329;41.594;23.810;2022-10-17T00:44:06;4.83;;;4.43;;
55465;SDS011;41329;41.594;23.810;2022-10-17T00:46:51;4.93;;;4.63;;
55465;SDS011;41329;41.594;23.810;2022-10-17T00:49:17;4.50;;;4.20;;
55465;SDS011;41329;41.594;23.810;2022-10-17T00:51:44;4.60;;;4.20;;
55465;SDS011;41329;41.594;23.810;2022-10-17T00:54:13;4.90;;;4.10;;
55465;SDS011;41329;41.594;23.810;2022-10-17T00:56:41;4.50;;;4.20;;
55465;SDS011;41329;41.594;23.810;2022-10-17T00:59:08;4.30;;;4.00;;
55465;SDS011;41329;41.594;23.810;2022-10-17T01:01:36;5.47;;;3.70;;
55465;SDS011;41329;41.594;23.810;2022-10-17T01:04:02;5.57;;;4.33;;
55465;SDS011;41329;41.594;23.810;2022-10-17T01:06:27;5.13;;;4.73;;
55465;SDS011;41329;41.594;23.810;2022-10-17T01:08:53;5.20;;;4.90;;
55465;SDS011;41329;41.594;23.810;2022-10-17T01:11:37;6.47;;;5.87;;
55465;SDS011;41329;41.594;23.810;2022-10-17T01:14:27;5.13;;;4.73;;
55465;SDS011;41329;41.594;23.810;2022-10-17T01:17:13;5.77;;;5.37;;
55465;SDS011;41329;41.594;23.810;2022-10-17T01:20:16;6.60;;;6.20;;
55465;SDS011;41329;41.594;23.810;2022-10-17T01:23:40;6.67;;;6.13;;
55465;SDS011;41329;41.594;23.810;2022-10-17T01:26:31;6.43;;;5.93;;
55465;SDS011;41329;41.594;23.810;2022-10-17T01:32:30;5.97;;;5.57;;
55465;SDS011;41329;41.594;23.810;2022-10-17T01:38:18;5.22;;;4.82;;
55465;SDS011;41329;41.594;23.810;2022-10-17T01:41:05;4.77;;;4.40;;
55465;SDS011;41329;41.594;23.810;2022-10-17T01:43:40;4.80;;;4.40;;
55465;SDS011;41329;41.594;23.810;2022-10-17T01:48:56;5.23;;;4.77;;
55465;SDS011;41329;41.594;23.810;2022-10-17T01:51:29;4.63;;;4.23;;
55465;SDS011;41329;41.594;23.810;2022-10-17T01:56:56;5.23;;;4.83;;
55465;SDS011;41329;41.594;23.810;2022-10-17T01:59:30;4.70;;;4.30;;
55465;SDS011;41329;41.594;23.810;2022-10-17T02:02:03;4.93;;;4.60;;
55465;SDS011;41329;41.594;23.810;2022-10-17T02:04:30;5.10;;;4.80;;
55465;SDS011;41329;41.594;23.810;2022-10-17T02:06:55;4.80;;;4.40;;
55465;SDS011;41329;41.594;23.810;2022-10-17T02:09:22;5.10;;;4.70;;
55465;SDS011;41329;41.594;23.810;2022-10-17T02:20:45;4.50;;;4.20;;
55465;SDS011;41329;41.594;23.810;2022-10-17T02:23:27;5.70;;;4.80;;
55465;SDS011;41329;41.594;23.810;2022-10-17T02:25:57;4.87;;;4.47;;
55465;SDS011;41329;41.594;23.810;2022-10-17T02:28:30;5.20;;;4.80;;
55465;SDS011;41329;41.594;23.810;2022-10-17T02:31:15;6.97;;;4.97;;
55465;SDS011;41329;41.594;23.810;2022-10-17T02:33:52;6.00;;;5.60;;
55465;SDS011;41329;41.594;23.810;2022-10-17T02:36:28;5.90;;;5.50;;
55465;SDS011;41329;41.594;23.810;2022-10-17T02:38:58;6.90;;;6.20;;
55465;SDS011;41329;41.594;23.810;2022-10-17T02:41:27;6.17;;;5.67;;
55465;SDS011;41329;41.594;23.810;2022-10-17T02:43:55;6.77;;;6.20;;
55465;SDS011;41329;41.594;23.810;2022-10-17T02:46:22;7.07;;;6.47;;
55465;SDS011;41329;41.594;23.810;2022-10-17T02:56:53;7.43;;;6.93;;
55465;SDS011;41329;41.594;23.810;2022-10-17T02:59:23;6.37;;;5.87;;
55465;SDS011;41329;41.594;23.810;2022-10-17T03:01:51;5.93;;;5.53;;
55465;SDS011;41329;41.594;23.810;2022-10-17T03:04:18;6.17;;;5.70;;
55465;SDS011;41329;41.594;23.810;2022-10-17T03:06:43;6.87;;;6.37;;
55465;SDS011;41329;41.594;23.810;2022-10-17T03:09:11;6.07;;;5.10;;
55465;SDS011;41329;41.594;23.810;2022-10-17T03:11:36;5.63;;;5.23;;
55465;SDS011;41329;41.594;23.810;2022-10-17T03:14:02;6.10;;;5.57;;
55465;SDS011;41329;41.594;23.810;2022-10-17T03:16:28;5.37;;;4.97;;
55465;SDS011;41329;41.594;23.810;2022-10-17T03:18:53;4.97;;;4.63;;
55465;SDS011;41329;41.594;23.810;2022-10-17T03:21:19;5.17;;;4.87;;
55465;SDS011;41329;41.594;23.810;2022-10-17T03:23:45;5.40;;;5.00;;
55465;SDS011;41329;41.594;23.810;2022-10-17T03:26:10;4.57;;;4.27;;
55465;SDS011;41329;41.594;23.810;2022-10-17T03:28:36;5.20;;;4.80;;
55465;SDS011;41329;41.594;23.810;2022-10-17T03:31:12;4.77;;;4.37;;
55465;SDS011;41329;41.594;23.810;2022-10-17T03:33:40;4.57;;;4.17;;
55465;SDS011;41329;41.594;23.810;2022-10-17T03:36:07;4.70;;;4.40;;
55465;SDS011;41329;41.594;23.810;2022-10-17T03:38:37;4.30;;;4.00;;
55465;SDS011;41329;41.594;23.810;2022-10-17T03:41:03;4.50;;;4.17;;
55465;SDS011;41329;41.594;23.810;2022-10-17T03:43:30;4.53;;;4.13;;
55465;SDS011;41329;41.594;23.810;2022-10-17T03:45:56;14.00;;;13.10;;
55465;SDS011;41329;41.594;23.810;2022-10-17T03:48:25;9.33;;;8.47;;
55465;SDS011;41329;41.594;23.810;2022-10-17T03:50:52;6.47;;;6.07;;
55465;SDS011;41329;41.594;23.810;2022-10-17T03:53:24;6.40;;;5.90;;
55465;SDS011;41329;41.594;23.810;2022-10-17T03:55:49;6.10;;;5.70;;
55465;SDS011;41329;41.594;23.810;2022-10-17T03:58:14;7.87;;;7.37;;
55465;SDS011;41329;41.594;23.810;2022-10-17T04:00:40;8.03;;;7.43;;
55465;SDS011;41329;41.594;23.810;2022-10-17T04:03:05;7.13;;;6.53;;
55465;SDS011;41329;41.594;23.810;2022-10-17T04:05:31;7.27;;;6.77;;
55465;SDS011;41329;41.594;23.810;2022-10-17T04:07:56;6.53;;;6.03;;
55465;SDS011;41329;41.594;23.810;2022-10-17T04:10:22;5.30;;;4.90;;
55465;SDS011;41329;41.594;23.810;2022-10-17T04:12:47;5.77;;;5.27;;
55465;SDS011;41329;41.594;23.810;2022-10-17T04:15:13;6.57;;;6.00;;
55465;SDS011;41329;41.594;23.810;2022-10-17T04:17:38;7.17;;;6.67;;
55465;SDS011;41329;41.594;23.810;2022-10-17T04:20:04;7.93;;;6.97;;
55465;SDS011;41329;41.594;23.810;2022-10-17T04:22:30;8.50;;;7.90;;
55465;SDS011;41329;41.594;23.810;2022-10-17T04:24:55;6.87;;;6.20;;
55465;SDS011;41329;41.594;23.810;2022-10-17T04:27:21;6.73;;;6.13;;
55465;SDS011;41329;41.594;23.810;2022-10-17T04:29:47;6.53;;;6.03;;
55465;SDS011;41329;41.594;23.810;2022-10-17T04:32:12;6.17;;;5.67;;
55465;SDS011;41329;41.594;23.810;2022-10-17T04:34:39;6.33;;;5.83;;
55465;SDS011;41329;41.594;23.810;2022-10-17T04:37:04;5.97;;;5.57;;
55465;SDS011;41329;41.594;23.810;2022-10-17T04:39:30;5.77;;;5.30;;
55465;SDS011;41329;41.594;23.810;2022-10-17T04:41:55;9.43;;;5.60;;
55465;SDS011;41329;41.594;23.810;2022-10-17T04:44:21;7.10;;;6.60;;
55465;SDS011;41329;41.594;23.810;2022-10-17T04:46:47;8.23;;;7.73;;
55465;SDS011;41329;41.594;23.810;2022-10-17T04:49:12;15.90;;;14.23;;
55465;SDS011;41329;41.594;23.810;2022-10-17T04:51:38;10.03;;;9.30;;
55465;SDS011;41329;41.594;23.810;2022-10-17T04:54:03;7.57;;;6.93;;
55465;SDS011;41329;41.594;23.810;2022-10-17T04:56:29;7.93;;;6.10;;
55465;SDS011;41329;41.594;23.810;2022-10-17T04:58:55;6.20;;;5.73;;
55465;SDS011;41329;41.594;23.810;2022-10-17T05:01:22;5.77;;;5.37;;
55465;SDS011;41329;41.594;23.810;2022-10-17T05:03:47;5.17;;;4.87;;
55465;SDS011;41329;41.594;23.810;2022-10-17T05:06:14;6.27;;;5.77;;
55465;SDS011;41329;41.594;23.810;2022-10-17T05:08:42;10.80;;;10.10;;
55465;SDS011;41329;41.594;23.810;2022-10-17T05:11:18;15.37;;;14.37;;
55465;SDS011;41329;41.594;23.810;2022-10-17T05:13:53;18.63;;;17.13;;
55465;SDS011;41329;41.594;23.810;2022-10-17T05:16:20;17.37;;;16.10;;
55465;SDS011;41329;41.594;23.810;2022-10-17T05:18:49;14.40;;;13.33;;
55465;SDS011;41329;41.594;23.810;2022-10-17T05:21:17;14.73;;;12.87;;
55465;SDS011;41329;41.594;23.810;2022-10-17T05:23:43;18.77;;;16.37;;
55465;SDS011;41329;41.594;23.810;2022-10-17T05:26:09;21.63;;;18.57;;
55465;SDS011;41329;41.594;23.810;2022-10-17T05:28:35;22.40;;;17.80;;
55465;SDS011;41329;41.594;23.810;2022-10-17T05:31:02;50.47;;;26.70;;
55465;SDS011;41329;41.594;23.810;2022-10-17T05:33:28;60.80;;;31.83;;
55465;SDS011;41329;41.594;23.810;2022-10-17T05:35:53;57.57;;;30.23;;
55465;SDS011;41329;41.594;23.810;2022-10-17T05:38:19;30.73;;;21.57;;
55465;SDS011;41329;41.594;23.810;2022-10-17T05:40:44;20.17;;;18.03;;
55465;SDS011;41329;41.594;23.810;2022-10-17T05:43:10;28.97;;;19.83;;
55465;SDS011;41329;41.594;23.810;2022-10-17T05:45:35;25.43;;;18.57;;
55465;SDS011;41329;41.594;23.810;2022-10-17T05:48:01;28.17;;;19.60;;
55465;SDS011;41329;41.594;23.810;2022-10-17T05:50:26;34.77;;;24.70;;
55465;SDS011;41329;41.594;23.810;2022-10-17T05:52:52;29.03;;;21.50;;
55465;SDS011;41329;41.594;23.810;2022-10-17T05:55:19;21.57;;;19.47;;
55465;SDS011;41329;41.594;23.810;2022-10-17T05:57:44;20.93;;;18.73;;
55465;SDS011;41329;41.594;23.810;2022-10-17T06:00:10;24.90;;;17.30;;
55465;SDS011;41329;41.594;23.810;2022-10-17T06:02:36;26.80;;;19.03;;
55465;SDS011;41329;41.594;23.810;2022-10-17T06:05:01;24.17;;;18.73;;
55465;SDS011;41329;41.594;23.810;2022-10-17T06:07:27;24.47;;;19.00;;
55465;SDS011;41329;41.594;23.810;2022-10-17T06:09:52;22.67;;;19.37;;
55465;SDS011;41329;41.594;23.810;2022-10-17T06:12:17;29.00;;;20.50;;
55465;SDS011;41329;41.594;23.810;2022-10-17T06:14:43;25.90;;;22.93;;
55465;SDS011;41329;41.594;23.810;2022-10-17T06:17:09;48.27;;;31.77;;
55465;SDS011;41329;41.594;23.810;2022-10-17T06:19:34;38.47;;;29.03;;
55465;SDS011;41329;41.594;23.810;2022-10-17T06:22:00;24.33;;;18.03;;
55465;SDS011;41329;41.594;23.810;2022-10-17T06:24:26;18.37;;;16.57;;
55465;SDS011;41329;41.594;23.810;2022-10-17T06:26:51;12.70;;;11.67;;
55465;SDS011;41329;41.594;23.810;2022-10-17T06:29:17;11.67;;;10.67;;
55465;SDS011;41329;41.594;23.810;2022-10-17T06:31:42;14.17;;;12.73;;
55465;SDS011;41329;41.594;23.810;2022-10-17T06:34:08;17.97;;;12.30;;
55465;SDS011;41329;41.594;23.810;2022-10-17T06:36:33;18.17;;;16.30;;
55465;SDS011;41329;41.594;23.810;2022-10-17T06:38:58;52.17;;;26.63;;
55465;SDS011;41329;41.594;23.810;2022-10-17T06:41:24;35.27;;;21.00;;
55465;SDS011;41329;41.594;23.810;2022-10-17T06:43:50;23.13;;;19.50;;
55465;SDS011;41329;41.594;23.810;2022-10-17T06:46:16;17.30;;;15.80;;
55465;SDS011;41329;41.594;23.810;2022-10-17T06:48:43;21.83;;;17.20;;
55465;SDS011;41329;41.594;23.810;2022-10-17T06:51:09;19.17;;;17.30;;
55465;SDS011;41329;41.594;23.810;2022-10-17T06:53:35;15.57;;;13.97;;
55465;SDS011;41329;41.594;23.810;2022-10-17T06:56:02;12.90;;;11.80;;
55465;SDS011;41329;41.594;23.810;2022-10-17T06:58:30;12.20;;;11.10;;
55465;SDS011;41329;41.594;23.810;2022-10-17T07:01:00;12.23;;;11.03;;
55465;SDS011;41329;41.594;23.810;2022-10-17T07:03:28;11.93;;;10.00;;
55465;SDS011;41329;41.594;23.810;2022-10-17T07:05:54;14.03;;;13.20;;
55465;SDS011;41329;41.594;23.810;2022-10-17T07:08:19;14.47;;;13.30;;
55465;SDS011;41329;41.594;23.810;2022-10-17T07:10:45;12.47;;;11.57;;
55465;SDS011;41329;41.594;23.810;2022-10-17T07:13:11;10.60;;;9.67;;
55465;SDS011;41329;41.594;23.810;2022-10-17T07:15:37;8.90;;;8.30;;
55465;SDS011;41329;41.594;23.810;2022-10-17T07:18:03;11.07;;;10.37;;
55465;SDS011;41329;41.594;23.810;2022-10-17T07:20:29;9.43;;;8.53;;
55465;SDS011;41329;41.594;23.810;2022-10-17T07:22:55;5.53;;;5.10;;
55465;SDS011;41329;41.594;23.810;2022-10-17T07:25:21;6.40;;;5.90;;
55465;SDS011;41329;41.594;23.810;2022-10-17T07:27:47;6.80;;;6.30;;
55465;SDS011;41329;41.594;23.810;2022-10-17T07:30:13;6.10;;;5.70;;
55465;SDS011;41329;41.594;23.810;2022-10-17T07:32:38;6.47;;;5.87;;
55465;SDS011;41329;41.594;23.810;2022-10-17T07:35:04;7.43;;;6.93;;
55465;SDS011;41329;41.594;23.810;2022-10-17T07:37:29;10.87;;;10.07;;
55465;SDS011;41329;41.594;23.810;2022-10-17T07:39:55;7.07;;;6.47;;
55465;SDS011;41329;41.594;23.810;2022-10-17T07:42:21;7.33;;;6.73;;
55465;SDS011;41329;41.594;23.810;2022-10-17T07:44:47;7.37;;;6.80;;
55465;SDS011;41329;41.594;23.810;2022-10-17T07:47:12;8.73;;;8.00;;
55465;SDS011;41329;41.594;23.810;2022-10-17T07:49:38;8.70;;;8.07;;
55465;SDS011;41329;41.594;23.810;2022-10-17T07:52:08;8.23;;;7.67;;
55465;SDS011;41329;41.594;23.810;2022-10-17T07:54:38;8.07;;;7.57;;
55465;SDS011;41329;41.594;23.810;2022-10-17T07:57:03;8.50;;;7.80;;
55465;SDS011;41329;41.594;23.810;2022-10-17T07:59:29;8.07;;;7.47;;
55465;SDS011;41329;41.594;23.810;2022-10-17T08:01:57;9.60;;;8.63;;
55465;SDS011;41329;41.594;23.810;2022-10-17T08:04:23;9.90;;;8.87;;
55465;SDS011;41329;41.594;23.810;2022-10-17T08:06:49;8.60;;;8.00;;
55465;SDS011;41329;41.594;23.810;2022-10-17T08:09:14;8.60;;;7.90;;
55465;SDS011;41329;41.594;23.810;2022-10-17T08:11:40;8.23;;;7.53;;
55465;SDS011;41329;41.594;23.810;2022-10-17T08:14:08;10.40;;;9.60;;
55465;SDS011;41329;41.594;23.810;2022-10-17T08:16:34;9.03;;;8.53;;
55465;SDS011;41329;41.594;23.810;2022-10-17T08:18:59;7.20;;;6.57;;
55465;SDS011;41329;41.594;23.810;2022-10-17T08:21:25;6.07;;;5.57;;
55465;SDS011;41329;41.594;23.810;2022-10-17T08:23:51;5.73;;;5.23;;
55465;SDS011;41329;41.594;23.810;2022-10-17T08:26:16;7.00;;;5.90;;
55465;SDS011;41329;41.594;23.810;2022-10-17T08:28:44;5.43;;;5.03;;
55465;SDS011;41329;41.594;23.810;2022-10-17T08:31:11;5.97;;;5.57;;
55465;SDS011;41329;41.594;23.810;2022-10-17T08:33:39;12.20;;;5.53;;
55465;SDS011;41329;41.594;23.810;2022-10-17T08:36:06;5.53;;;5.20;;
55465;SDS011;41329;41.594;23.810;2022-10-17T08:38:32;5.77;;;5.37;;
55465;SDS011;41329;41.594;23.810;2022-10-17T08:41:00;4.90;;;4.50;;
55465;SDS011;41329;41.594;23.810;2022-10-17T08:44:11;4.60;;;4.23;;
55465;SDS011;41329;41.594;23.810;2022-10-17T08:46:46;4.65;;;4.30;;
55465;SDS011;41329;41.594;23.810;2022-10-17T08:49:29;4.75;;;4.35;;
55465;SDS011;41329;41.594;23.810;2022-10-17T08:52:17;4.80;;;4.30;;
55465;SDS011;41329;41.594;23.810;2022-10-17T08:54:56;4.38;;;4.07;;
55465;SDS011;41329;41.594;23.810;2022-10-17T08:57:23;4.32;;;4.03;;
55465;SDS011;41329;41.594;23.810;2022-10-17T08:59:49;4.97;;;4.68;;
55465;SDS011;41329;41.594;23.810;2022-10-17T09:02:29;4.95;;;4.53;;
55465;SDS011;41329;41.594;23.810;2022-10-17T09:10:54;4.60;;;4.20;;
55465;SDS011;41329;41.594;23.810;2022-10-17T09:21:54;3.60;;;3.30;;
55465;SDS011;41329;41.594;23.810;2022-10-17T09:24:39;3.90;;;3.60;;
55465;SDS011;41329;41.594;23.810;2022-10-17T09:27:18;3.78;;;3.47;;
55465;SDS011;41329;41.594;23.810;2022-10-17T09:29:49;3.75;;;2.85;;
55465;SDS011;41329;41.594;23.810;2022-10-17T09:32:22;3.90;;;3.45;;
55465;SDS011;41329;41.594;23.810;2022-10-17T09:34:50;3.78;;;3.30;;
55465;SDS011;41329;41.594;23.810;2022-10-17T09:37:16;3.28;;;3.03;;
55465;SDS011;41329;41.594;23.810;2022-10-17T09:39:42;3.28;;;2.90;;
55465;SDS011;41329;41.594;23.810;2022-10-17T09:42:09;3.35;;;3.05;;
55465;SDS011;41329;41.594;23.810;2022-10-17T09:47:23;3.35;;;2.90;;
55465;SDS011;41329;41.594;23.810;2022-10-17T09:49:54;2.65;;;2.45;;
55465;SDS011;41329;41.594;23.810;2022-10-17T09:52:30;3.00;;;2.80;;
55465;SDS011;41329;41.594;23.810;2022-10-17T09:55:14;2.97;;;2.78;;
55465;SDS011;41329;41.594;23.810;2022-10-17T09:57:53;2.63;;;2.42;;
55465;SDS011;41329;41.594;23.810;2022-10-17T10:00:22;2.60;;;2.40;;
55465;SDS011;41329;41.594;23.810;2022-10-17T10:03:06;2.97;;;2.67;;
55465;SDS011;41329;41.594;23.810;2022-10-17T10:05:59;2.90;;;2.60;;
55465;SDS011;41329;41.594;23.810;2022-10-17T10:08:26;2.92;;;2.72;;
55465;SDS011;41329;41.594;23.810;2022-10-17T10:11:01;2.78;;;2.58;;
55465;SDS011;41329;41.594;23.810;2022-10-17T10:13:33;4.22;;;3.50;;
55465;SDS011;41329;41.594;23.810;2022-10-17T10:16:14;2.67;;;2.47;;
55465;SDS011;41329;41.594;23.810;2022-10-17T10:18:39;2.38;;;2.28;;
55465;SDS011;41329;41.594;23.810;2022-10-17T10:23:31;2.90;;;2.38;;
55465;SDS011;41329;41.594;23.810;2022-10-17T10:25:57;2.30;;;2.10;;
55465;SDS011;41329;41.594;23.810;2022-10-17T10:28:27;2.05;;;1.95;;
55465;SDS011;41329;41.594;23.810;2022-10-17T10:31:05;1.90;;;1.80;;
55465;SDS011;41329;41.594;23.810;2022-10-17T10:36:00;1.95;;;1.77;;
55465;SDS011;41329;41.594;23.810;2022-10-17T10:38:27;1.73;;;1.63;;
55465;SDS011;41329;41.594;23.810;2022-10-17T10:40:55;1.98;;;1.88;;
55465;SDS011;41329;41.594;23.810;2022-10-17T10:45:57;1.77;;;1.63;;
55465;SDS011;41329;41.594;23.810;2022-10-17T10:48:23;1.80;;;1.65;;
55465;SDS011;41329;41.594;23.810;2022-10-17T10:51:07;1.75;;;1.65;;
55465;SDS011;41329;41.594;23.810;2022-10-17T10:56:37;1.60;;;1.50;;
55465;SDS011;41329;41.594;23.810;2022-10-17T11:01:36;1.60;;;1.50;;
55465;SDS011;41329;41.594;23.810;2022-10-17T11:07:04;2.25;;;1.50;;
55465;SDS011;41329;41.594;23.810;2022-10-17T11:18:02;1.80;;;1.48;;
55465;SDS011;41329;41.594;23.810;2022-10-17T11:26:21;1.67;;;1.58;;
55465;SDS011;41329;41.594;23.810;2022-10-17T11:28:53;2.53;;;2.00;;
55465;SDS011;41329;41.594;23.810;2022-10-17T11:31:21;1.52;;;1.42;;
55465;SDS011;41329;41.594;23.810;2022-10-17T11:36:33;2.38;;;1.00;;
55465;SDS011;41329;41.594;23.810;2022-10-17T11:39:04;1.58;;;1.42;;
55465;SDS011;41329;41.594;23.810;2022-10-17T11:41:42;1.48;;;1.20;;
55465;SDS011;41329;41.594;23.810;2022-10-17T11:50:01;2.55;;;1.30;;
55465;SDS011;41329;41.594;23.810;2022-10-17T11:52:45;1.65;;;1.42;;
55465;SDS011;41329;41.594;23.810;2022-10-17T11:55:25;2.25;;;1.67;;
55465;SDS011;41329;41.594;23.810;2022-10-17T12:11:38;1.38;;;1.27;;
55465;SDS011;41329;41.594;23.810;2022-10-17T12:17:44;1.60;;;1.40;;
55465;SDS011;41329;41.594;23.810;2022-10-17T12:25:21;1.60;;;1.50;;
55465;SDS011;41329;41.594;23.810;2022-10-17T12:28:00;1.42;;;1.25;;
55465;SDS011;41329;41.594;23.810;2022-10-17T12:30:34;1.48;;;1.35;;
55465;SDS011;41329;41.594;23.810;2022-10-17T12:33:01;1.75;;;1.20;;
55465;SDS011;41329;41.594;23.810;2022-10-17T12:38:13;1.77;;;1.67;;
55465;SDS011;41329;41.594;23.810;2022-10-17T12:45:48;1.55;;;1.38;;
55465;SDS011;41329;41.594;23.810;2022-10-17T12:51:07;2.88;;;1.50;;
55465;SDS011;41329;41.594;23.810;2022-10-17T12:53:40;2.70;;;1.30;;
55465;SDS011;41329;41.594;23.810;2022-10-17T12:56:30;1.38;;;1.25;;
55465;SDS011;41329;41.594;23.810;2022-10-17T12:59:07;2.05;;;1.00;;
55465;SDS011;41329;41.594;23.810;2022-10-17T13:01:38;1.55;;;1.30;;
55465;SDS011;41329;41.594;23.810;2022-10-17T13:04:09;1.88;;;1.35;;
55465;SDS011;41329;41.594;23.810;2022-10-17T13:06:37;2.67;;;1.20;;
55465;SDS011;41329;41.594;23.810;2022-10-17T13:09:14;1.55;;;1.15;;
55465;SDS011;41329;41.594;23.810;2022-10-17T13:11:47;3.28;;;1.20;;
55465;SDS011;41329;41.594;23.810;2022-10-17T13:14:15;1.30;;;1.20;;
55465;SDS011;41329;41.594;23.810;2022-10-17T13:16:56;3.63;;;1.23;;
55465;SDS011;41329;41.594;23.810;2022-10-17T13:19:28;1.40;;;1.00;;
55465;SDS011;41329;41.594;23.810;2022-10-17T13:22:09;1.45;;;1.30;;
55465;SDS011;41329;41.594;23.810;2022-10-17T13:24:39;1.52;;;1.00;;
55465;SDS011;41329;41.594;23.810;2022-10-17T13:27:19;1.88;;;1.10;;
55465;SDS011;41329;41.594;23.810;2022-10-17T13:29:53;1.30;;;1.20;;
55465;SDS011;41329;41.594;23.810;2022-10-17T13:32:20;1.20;;;1.02;;
55465;SDS011;41329;41.594;23.810;2022-10-17T13:35:03;2.13;;;1.90;;
55465;SDS011;41329;41.594;23.810;2022-10-17T13:37:37;1.20;;;1.10;;
55465;SDS011;41329;41.594;23.810;2022-10-17T13:40:05;1.27;;;1.10;;
55465;SDS011;41329;41.594;23.810;2022-10-17T13:42:37;1.40;;;1.30;;
55465;SDS011;41329;41.594;23.810;2022-10-17T13:45:09;2.10;;;1.40;;
55465;SDS011;41329;41.594;23.810;2022-10-17T13:47:46;1.30;;;1.20;;
55465;SDS011;41329;41.594;23.810;2022-10-17T13:50:19;2.97;;;1.23;;
55465;SDS011;41329;41.594;23.810;2022-10-17T13:53:04;1.50;;;1.20;;
55465;SDS011;41329;41.594;23.810;2022-10-17T13:55:31;1.25;;;1.15;;
55465;SDS011;41329;41.594;23.810;2022-10-17T13:58:07;1.50;;;1.40;;
55465;SDS011;41329;41.594;23.810;2022-10-17T14:00:45;2.03;;;1.30;;
55465;SDS011;41329;41.594;23.810;2022-10-17T14:03:13;2.17;;;1.40;;
55465;SDS011;41329;41.594;23.810;2022-10-17T14:08:34;1.88;;;1.10;;
55465;SDS011;41329;41.594;23.810;2022-10-17T14:11:00;2.38;;;1.17;;
55465;SDS011;41329;41.594;23.810;2022-10-17T14:13:27;0.90;;;0.90;;
55465;SDS011;41329;41.594;23.810;2022-10-17T14:15:59;1.35;;;1.25;;
55465;SDS011;41329;41.594;23.810;2022-10-17T14:18:28;1.25;;;1.10;;
55465;SDS011;41329;41.594;23.810;2022-10-17T14:20:56;1.80;;;1.00;;
55465;SDS011;41329;41.594;23.810;2022-10-17T14:26:11;1.95;;;1.10;;
55465;SDS011;41329;41.594;23.810;2022-10-17T14:28:40;1.50;;;1.20;;
55465;SDS011;41329;41.594;23.810;2022-10-17T14:31:28;1.65;;;1.30;;
55465;SDS011;41329;41.594;23.810;2022-10-17T14:33:56;3.03;;;1.10;;
55465;SDS011;41329;41.594;23.810;2022-10-17T14:36:55;2.42;;;1.10;;
55465;SDS011;41329;41.594;23.810;2022-10-17T14:39:19;2.17;;;1.15;;
55465;SDS011;41329;41.594;23.810;2022-10-17T14:41:47;1.45;;;1.10;;
55465;SDS011;41329;41.594;23.810;2022-10-17T14:44:15;1.58;;;0.93;;
55465;SDS011;41329;41.594;23.810;2022-10-17T14:46:55;1.40;;;1.23;;
55465;SDS011;41329;41.594;23.810;2022-10-17T14:49:25;2.05;;;1.30;;
55465;SDS011;41329;41.594;23.810;2022-10-17T14:52:11;5.40;;;5.03;;
55465;SDS011;41329;41.594;23.810;2022-10-17T14:54:48;3.53;;;3.22;;
55465;SDS011;41329;41.594;23.810;2022-10-17T14:59:49;3.33;;;3.13;;
55465;SDS011;41329;41.594;23.810;2022-10-17T15:02:15;2.38;;;1.40;;
55465;SDS011;41329;41.594;23.810;2022-10-17T15:04:40;2.58;;;1.90;;
55465;SDS011;41329;41.594;23.810;2022-10-17T15:07:08;2.33;;;1.55;;
55465;SDS011;41329;41.594;23.810;2022-10-17T15:09:38;1.73;;;1.30;;
55465;SDS011;41329;41.594;23.810;2022-10-17T15:12:05;1.75;;;1.65;;
55465;SDS011;41329;41.594;23.810;2022-10-17T15:14:34;10.60;;;1.95;;
55465;SDS011;41329;41.594;23.810;2022-10-17T15:16:59;1.67;;;1.58;;
55465;SDS011;41329;41.594;23.810;2022-10-17T15:19:25;1.67;;;1.55;;
55465;SDS011;41329;41.594;23.810;2022-10-17T15:21:50;2.25;;;2.05;;
55465;SDS011;41329;41.594;23.810;2022-10-17T15:24:16;4.57;;;1.92;;
55465;SDS011;41329;41.594;23.810;2022-10-17T15:26:41;3.78;;;2.05;;
55465;SDS011;41329;41.594;23.810;2022-10-17T15:29:07;8.45;;;7.97;;
55465;SDS011;41329;41.594;23.810;2022-10-17T15:31:38;2.63;;;2.42;;
55465;SDS011;41329;41.594;23.810;2022-10-17T15:34:03;5.05;;;2.63;;
55465;SDS011;41329;41.594;23.810;2022-10-17T15:36:29;3.60;;;2.42;;
55465;SDS011;41329;41.594;23.810;2022-10-17T15:39:00;4.05;;;2.10;;
55465;SDS011;41329;41.594;23.810;2022-10-17T15:41:27;5.20;;;3.10;;
55465;SDS011;41329;41.594;23.810;2022-10-17T15:43:54;13.50;;;2.95;;
55465;SDS011;41329;41.594;23.810;2022-10-17T15:46:21;4.40;;;2.97;;
55465;SDS011;41329;41.594;23.810;2022-10-17T15:48:50;4.43;;;2.65;;
55465;SDS011;41329;41.594;23.810;2022-10-17T15:51:16;4.32;;;3.33;;
55465;SDS011;41329;41.594;23.810;2022-10-17T15:53:42;5.97;;;3.65;;
55465;SDS011;41329;41.594;23.810;2022-10-17T15:56:13;4.25;;;3.85;;
55465;SDS011;41329;41.594;23.810;2022-10-17T15:58:47;4.00;;;3.60;;
55465;SDS011;41329;41.594;23.810;2022-10-17T16:01:26;6.75;;;4.88;;
55465;SDS011;41329;41.594;23.810;2022-10-17T16:06:19;11.88;;;5.38;;
55465;SDS011;41329;41.594;23.810;2022-10-17T16:08:46;4.63;;;4.00;;
55465;SDS011;41329;41.594;23.810;2022-10-17T16:11:15;4.00;;;3.70;;
55465;SDS011;41329;41.594;23.810;2022-10-17T16:13:51;3.05;;;2.53;;
55465;SDS011;41329;41.594;23.810;2022-10-17T16:16:18;2.70;;;2.50;;
55465;SDS011;41329;41.594;23.810;2022-10-17T16:18:46;13.27;;;3.45;;
55465;SDS011;41329;41.594;23.810;2022-10-17T16:21:12;4.15;;;1.95;;
55465;SDS011;41329;41.594;23.810;2022-10-17T16:23:39;2.83;;;2.40;;
55465;SDS011;41329;41.594;23.810;2022-10-17T16:26:05;2.33;;;2.13;;
55465;SDS011;41329;41.594;23.810;2022-10-17T16:28:31;3.05;;;2.17;;
55465;SDS011;41329;41.594;23.810;2022-10-17T16:30:57;6.40;;;1.73;;
55465;SDS011;41329;41.594;23.810;2022-10-17T16:33:22;2.63;;;2.42;;
55465;SDS011;41329;41.594;23.810;2022-10-17T16:35:48;3.38;;;1.92;;
55465;SDS011;41329;41.594;23.810;2022-10-17T16:38:13;2.30;;;2.10;;
55465;SDS011;41329;41.594;23.810;2022-10-17T16:40:39;1.98;;;1.77;;
55465;SDS011;41329;41.594;23.810;2022-10-17T16:43:05;3.35;;;2.33;;
55465;SDS011;41329;41.594;23.810;2022-10-17T16:45:30;5.78;;;1.85;;
55465;SDS011;41329;41.594;23.810;2022-10-17T16:47:56;2.20;;;1.90;;
55465;SDS011;41329;41.594;23.810;2022-10-17T16:50:21;2.35;;;2.15;;
55465;SDS011;41329;41.594;23.810;2022-10-17T16:52:47;5.90;;;2.33;;